createdAt,value
2022-11-20T00:01:33.830Z,-2.52
2022-11-20T00:04:02.121Z,-2.54
2022-11-20T00:06:30.200Z,-2.51
2022-11-20T00:09:01.396Z,-2.52
2022-11-20T00:11:31.132Z,-2.54
2022-11-20T00:14:01.419Z,-2.51
2022-11-20T00:16:32.568Z,-2.51
2022-11-20T00:19:00.223Z,-2.54
2022-11-20T00:21:29.862Z,-2.51
2022-11-20T00:23:58.540Z,-2.52
2022-11-20T00:26:28.246Z,-2.55
2022-11-20T00:28:59.383Z,-2.61
2022-11-20T00:31:27.626Z,-2.59
2022-11-20T00:33:55.185Z,-2.61
2022-11-20T00:36:26.356Z,-2.67
2022-11-20T00:38:56.801Z,-2.59
2022-11-20T00:41:25.603Z,-2.58
2022-11-20T00:43:54.905Z,-2.56
2022-11-20T00:46:26.636Z,-2.65
2022-11-20T00:48:54.325Z,-2.62
2022-11-20T00:51:26.353Z,-2.60
2022-11-20T00:53:58.052Z,-2.65
2022-11-20T00:56:25.352Z,-2.62
2022-11-20T00:58:52.848Z,-2.73
2022-11-20T01:01:26.388Z,-2.77
2022-11-20T01:03:56.928Z,-2.75
2022-11-20T01:06:30.532Z,-2.90
2022-11-20T01:09:02.558Z,-2.84
2022-11-20T01:11:33.634Z,-2.84
2022-11-20T01:14:03.821Z,-2.87
2022-11-20T01:16:36.663Z,-2.85
2022-11-20T01:19:08.549Z,-2.80
2022-11-20T01:21:39.710Z,-2.81
2022-11-20T01:24:12.299Z,-2.83
2022-11-20T01:26:42.210Z,-2.79
2022-11-20T01:29:29.926Z,-2.83
2022-11-20T01:31:57.161Z,-2.77
2022-11-20T01:34:24.823Z,-2.76
2022-11-20T01:36:53.951Z,-2.76
2022-11-20T01:39:27.423Z,-2.75
2022-11-20T01:42:15.265Z,-2.74
2022-11-20T01:44:58.940Z,-2.75
2022-11-20T01:47:40.729Z,-2.76
2022-11-20T01:50:29.970Z,-2.74
2022-11-20T01:53:09.593Z,-2.77
2022-11-20T01:55:44.926Z,-2.84
2022-11-20T01:58:13.950Z,-2.83
2022-11-20T02:00:42.173Z,-2.86
2022-11-20T02:03:16.686Z,-2.94
2022-11-20T02:06:00.416Z,-2.94
2022-11-20T02:08:29.997Z,-3.07
2022-11-20T02:10:57.739Z,-3.06
2022-11-20T02:13:57.522Z,-3.14
2022-11-20T02:16:40.350Z,-3.23
2022-11-20T02:19:24.578Z,-3.18
2022-11-20T02:22:38.324Z,-3.14
2022-11-20T02:25:09.036Z,-3.17
2022-11-20T02:27:37.381Z,-3.10
2022-11-20T02:30:09.014Z,-3.09
2022-11-20T02:32:39.260Z,-3.07
2022-11-20T02:35:21.456Z,-3.06
2022-11-20T02:37:53.937Z,-3.04
2022-11-20T02:40:21.240Z,-2.97
2022-11-20T02:42:49.124Z,-2.99
2022-11-20T02:45:16.284Z,-3.00
2022-11-20T02:47:43.766Z,-3.01
2022-11-20T02:50:11.505Z,-3.07
2022-11-20T02:52:39.042Z,-3.08
2022-11-20T02:55:07.118Z,-3.09
2022-11-20T02:57:34.774Z,-3.16
2022-11-20T03:00:02.396Z,-3.15
2022-11-20T03:02:34.010Z,-3.21
2022-11-20T03:05:01.268Z,-3.18
2022-11-20T03:07:28.886Z,-3.21
2022-11-20T03:09:56.213Z,-3.19
2022-11-20T03:12:23.664Z,-3.15
2022-11-20T03:14:53.299Z,-3.12
2022-11-20T03:17:21.104Z,-3.11
2022-11-20T03:19:48.322Z,-3.06
2022-11-20T03:22:16.055Z,-3.04
2022-11-20T03:24:43.304Z,-3.07
2022-11-20T03:27:10.992Z,-3.03
2022-11-20T03:29:38.142Z,-3.05
2022-11-20T03:32:06.357Z,-3.01
2022-11-20T03:34:33.569Z,-3.03
2022-11-20T03:37:01.072Z,-3.01
2022-11-20T03:39:28.308Z,-3.00
2022-11-20T03:41:55.836Z,-2.96
2022-11-20T03:44:23.403Z,-2.93
2022-11-20T03:46:50.837Z,-2.96
2022-11-20T03:49:18.066Z,-2.90
2022-11-20T03:51:45.520Z,-2.90
2022-11-20T03:54:12.681Z,-2.90
2022-11-20T03:56:40.618Z,-2.88
2022-11-20T03:59:08.041Z,-2.89
2022-11-20T04:01:38.643Z,-2.89
2022-11-20T04:04:06.954Z,-2.90
2022-11-20T04:06:39.140Z,-2.92
2022-11-20T04:09:07.320Z,-3.04
2022-11-20T04:11:40.368Z,-3.06
2022-11-20T04:14:14.426Z,-3.09
2022-11-20T04:16:42.417Z,-3.14
2022-11-20T04:19:16.035Z,-3.15
2022-11-20T04:21:45.086Z,-3.09
2022-11-20T04:24:12.603Z,-3.06
2022-11-20T04:26:41.395Z,-3.02
2022-11-20T04:29:12.873Z,-3.01
2022-11-20T04:31:40.481Z,-2.99
2022-11-20T04:34:08.830Z,-2.97
2022-11-20T04:36:36.386Z,-3.04
2022-11-20T04:39:07.271Z,-3.05
2022-11-20T04:41:37.682Z,-3.01
2022-11-20T04:44:07.289Z,-3.02
2022-11-20T04:46:39.418Z,-3.00
2022-11-20T04:49:07.665Z,-3.00
2022-11-20T04:51:35.822Z,-3.00
2022-11-20T04:54:03.318Z,-3.01
2022-11-20T04:56:30.982Z,-3.02
2022-11-20T04:59:02.802Z,-3.03
2022-11-20T05:01:31.156Z,-3.05
2022-11-20T05:03:58.418Z,-3.07
2022-11-20T05:06:26.734Z,-3.09
2022-11-20T05:08:53.884Z,-3.08
2022-11-20T05:11:22.696Z,-3.15
2022-11-20T05:13:52.347Z,-3.13
2022-11-20T05:16:25.346Z,-3.16
2022-11-20T05:18:55.877Z,-3.16
2022-11-20T05:21:24.047Z,-3.21
2022-11-20T05:23:51.279Z,-3.27
2022-11-20T05:26:23.646Z,-3.47
2022-11-20T05:28:52.817Z,-3.61
2022-11-20T05:31:27.715Z,-3.57
2022-11-20T05:33:58.229Z,-3.70
2022-11-20T05:36:26.150Z,-3.59
2022-11-20T05:38:58.111Z,-3.83
2022-11-20T05:41:29.325Z,-3.71
2022-11-20T05:43:58.952Z,-3.71
2022-11-20T05:46:29.022Z,-3.69
2022-11-20T05:48:58.814Z,-3.67
2022-11-20T05:51:27.197Z,-3.64
2022-11-20T05:53:54.617Z,-3.67
2022-11-20T05:56:23.477Z,-3.62
2022-11-20T05:58:51.015Z,-3.60
2022-11-20T06:01:25.857Z,-3.61
2022-11-20T06:03:55.281Z,-3.55
2022-11-20T06:06:23.894Z,-3.65
2022-11-20T06:08:51.287Z,-3.65
2022-11-20T06:11:19.690Z,-3.53
2022-11-20T06:13:47.932Z,-3.46
2022-11-20T06:16:19.919Z,-3.49
2022-11-20T06:18:48.074Z,-3.44
2022-11-20T06:21:22.405Z,-3.51
2022-11-20T06:23:51.547Z,-3.45
2022-11-20T06:26:25.979Z,-3.47
2022-11-20T06:28:54.172Z,-3.48
2022-11-20T06:31:25.761Z,-3.38
2022-11-20T06:33:53.999Z,-3.36
2022-11-20T06:36:23.986Z,-3.26
2022-11-20T06:38:51.852Z,-3.25
2022-11-20T06:41:23.796Z,-3.17
2022-11-20T06:43:51.434Z,-3.05
2022-11-20T06:46:21.546Z,-2.99
2022-11-20T06:48:50.238Z,-2.85
2022-11-20T06:51:18.059Z,-2.71
2022-11-20T06:53:45.419Z,-2.61
2022-11-20T06:56:12.896Z,-2.53
2022-11-20T06:58:40.267Z,-2.38
2022-11-20T07:01:12.361Z,-2.33
2022-11-20T07:03:41.233Z,-2.18
2022-11-20T07:06:10.014Z,-2.17
2022-11-20T07:08:37.702Z,-1.97
2022-11-20T07:11:08.482Z,-1.84
2022-11-20T07:13:36.021Z,-1.79
2022-11-20T07:16:07.372Z,-1.70
2022-11-20T07:18:34.833Z,-1.62
2022-11-20T07:21:11.676Z,-1.49
2022-11-20T07:23:39.376Z,-1.33
2022-11-20T07:26:10.084Z,-1.20
2022-11-20T07:28:38.558Z,-1.16
2022-11-20T07:31:08.473Z,-1.00
2022-11-20T07:33:35.708Z,-0.91
2022-11-20T07:36:03.838Z,-0.87
2022-11-20T07:38:31.282Z,-0.81
2022-11-20T07:40:59.309Z,-0.90
2022-11-20T07:43:26.829Z,-0.55
2022-11-20T07:45:57.930Z,-0.36
2022-11-20T07:48:26.497Z,-0.12
2022-11-20T07:50:58.131Z,0.17
2022-11-20T07:53:25.962Z,0.42
2022-11-20T07:55:53.631Z,0.89
2022-11-20T07:58:22.617Z,1.30
2022-11-20T08:00:50.449Z,1.34
2022-11-20T08:03:21.833Z,1.42
2022-11-20T08:05:52.664Z,1.81
2022-11-20T08:08:19.918Z,2.21
2022-11-20T08:10:47.353Z,2.50
2022-11-20T08:13:33.150Z,2.63
2022-11-20T08:16:00.613Z,3.06
2022-11-20T08:18:32.458Z,3.42
2022-11-20T08:21:05.044Z,3.60
2022-11-20T08:23:32.578Z,3.09
2022-11-20T08:26:00.100Z,2.83
2022-11-20T08:28:27.302Z,2.66
2022-11-20T08:31:03.196Z,2.59
2022-11-20T08:33:31.167Z,2.50
2022-11-20T08:36:04.442Z,2.33
2022-11-20T08:38:33.150Z,2.14
2022-11-20T08:41:22.513Z,2.01
2022-11-20T08:43:55.497Z,1.77
2022-11-20T08:46:25.962Z,1.77
2022-11-20T08:48:53.885Z,1.46
2022-11-20T08:51:21.884Z,1.60
2022-11-20T08:53:52.031Z,1.53
2022-11-20T08:56:19.737Z,1.55
2022-11-20T08:59:18.003Z,1.63
2022-11-20T09:01:34.573Z,1.70
2022-11-20T09:04:01.775Z,1.72
2022-11-20T09:06:29.396Z,1.95
2022-11-20T09:09:00.767Z,2.07
2022-11-20T09:11:31.159Z,2.74
2022-11-20T09:13:58.544Z,2.84
2022-11-20T09:16:26.129Z,2.89
2022-11-20T09:19:07.209Z,2.95
2022-11-20T09:21:41.005Z,3.11
2022-11-20T09:24:08.469Z,3.20
2022-11-20T09:26:36.850Z,3.32
2022-11-20T09:29:04.111Z,3.28
2022-11-20T09:31:31.607Z,3.25
2022-11-20T09:33:58.865Z,2.89
2022-11-20T09:36:26.432Z,2.62
2022-11-20T09:38:53.803Z,2.62
2022-11-20T09:41:42.369Z,2.45
2022-11-20T09:44:37.009Z,2.59
2022-11-20T09:47:34.979Z,3.01
2022-11-20T09:51:16.065Z,3.44
2022-11-20T09:54:19.580Z,3.70
2022-11-20T09:57:00.538Z,3.76
2022-11-20T09:59:43.637Z,3.70
2022-11-20T10:02:25.612Z,3.67
2022-11-20T10:05:19.265Z,3.74
2022-11-20T10:08:22.728Z,3.44
2022-11-20T10:11:24.858Z,3.40
2022-11-20T10:14:30.311Z,3.49
2022-11-20T10:17:11.583Z,3.53
2022-11-20T10:20:21.066Z,3.59
2022-11-20T10:23:25.773Z,4.08
2022-11-20T10:26:13.906Z,5.11
2022-11-20T10:29:00.592Z,5.89
2022-11-20T10:31:34.530Z,6.86
2022-11-20T10:34:22.770Z,7.32
2022-11-20T10:37:06.926Z,7.17
2022-11-20T10:40:01.914Z,7.18
2022-11-20T10:42:58.531Z,7.59
2022-11-20T10:45:26.149Z,8.45
2022-11-20T10:48:13.310Z,8.74
2022-11-20T10:50:56.069Z,8.26
2022-11-20T10:53:56.926Z,7.76
2022-11-20T10:56:52.223Z,7.48
2022-11-20T10:59:32.363Z,7.36
2022-11-20T11:04:48.639Z,7.76
2022-11-20T11:07:31.726Z,8.63
2022-11-20T11:09:59.125Z,9.90
2022-11-20T11:12:30.239Z,14.07
2022-11-20T11:14:58.819Z,17.18
2022-11-20T11:17:30.651Z,19.81
2022-11-20T11:20:21.755Z,19.04
2022-11-20T11:22:59.304Z,19.11
2022-11-20T11:25:34.695Z,21.68
2022-11-20T11:28:06.253Z,19.66
2022-11-20T11:30:45.707Z,18.60
2022-11-20T11:33:31.828Z,17.43
2022-11-20T11:36:17.022Z,16.35
2022-11-20T11:38:45.395Z,14.41
2022-11-20T11:41:29.058Z,13.96
2022-11-20T11:44:37.064Z,12.99
2022-11-20T11:47:10.915Z,11.68
2022-11-20T11:49:38.601Z,11.98
2022-11-20T11:52:23.661Z,12.09
2022-11-20T11:55:07.087Z,12.46
2022-11-20T11:58:01.860Z,12.13
2022-11-20T12:00:29.813Z,12.09
2022-11-20T12:03:22.715Z,11.62
2022-11-20T12:06:02.785Z,10.78
2022-11-20T12:08:45.155Z,10.42
2022-11-20T12:11:24.258Z,10.68
2022-11-20T12:13:59.530Z,10.73
2022-11-20T12:16:27.096Z,10.64
2022-11-20T12:18:54.835Z,10.18
2022-11-20T12:21:25.545Z,9.82
2022-11-20T12:24:22.698Z,9.69
2022-11-20T12:27:54.303Z,10.85
2022-11-20T12:30:24.095Z,13.67
2022-11-20T12:33:27.067Z,14.57
2022-11-20T12:36:27.212Z,17.75
2022-11-20T12:39:12.916Z,19.58
2022-11-20T12:42:21.493Z,20.89
2022-11-20T12:45:45.210Z,22.53
2022-11-20T12:48:31.035Z,21.94
2022-11-20T12:51:33.031Z,21.77
2022-11-20T12:54:35.545Z,22.25
2022-11-20T12:57:22.916Z,23.12
2022-11-20T13:00:18.166Z,22.24
2022-11-20T13:03:46.768Z,21.91
2022-11-20T13:06:19.984Z,22.01
2022-11-20T13:08:57.809Z,22.34
2022-11-20T13:11:42.844Z,22.30
2022-11-20T13:14:28.011Z,21.70
2022-11-20T13:17:29.755Z,20.31
2022-11-20T13:20:01.822Z,20.28
2022-11-20T13:22:52.834Z,20.38
2022-11-20T13:25:39.140Z,19.96
2022-11-20T13:28:31.216Z,19.30
2022-11-20T13:31:00.133Z,18.33
2022-11-20T13:33:38.550Z,16.60
2022-11-20T13:36:24.173Z,14.98
2022-11-20T13:38:57.420Z,13.59
2022-11-20T13:41:36.524Z,13.05
2022-11-20T13:44:11.365Z,11.79
2022-11-20T13:46:45.648Z,10.40
2022-11-20T13:49:45.852Z,9.80
2022-11-20T13:52:51.959Z,8.62
2022-11-20T13:55:55.548Z,8.33
2022-11-20T13:58:45.093Z,7.75
2022-11-20T14:01:24.098Z,7.61
2022-11-20T14:04:09.361Z,7.35
2022-11-20T14:06:47.687Z,6.85
2022-11-20T14:09:27.743Z,6.60
2022-11-20T14:11:55.095Z,6.48
2022-11-20T14:14:26.994Z,6.40
2022-11-20T14:17:21.590Z,6.24
2022-11-20T14:19:52.288Z,6.11
2022-11-20T14:22:28.906Z,5.94
2022-11-20T14:25:28.236Z,5.77
2022-11-20T14:28:04.120Z,5.49
2022-11-20T14:30:47.661Z,5.31
2022-11-20T14:33:16.358Z,5.24
2022-11-20T14:35:55.486Z,4.93
2022-11-20T14:38:30.344Z,4.76
2022-11-20T14:41:18.965Z,4.43
2022-11-20T14:43:59.822Z,4.24
2022-11-20T14:46:28.791Z,4.22
2022-11-20T14:49:01.337Z,4.33
2022-11-20T14:51:44.016Z,4.29
2022-11-20T14:54:26.520Z,4.30
2022-11-20T14:56:59.853Z,4.23
2022-11-20T14:59:33.305Z,4.17
2022-11-20T15:02:11.724Z,4.15
2022-11-20T15:05:00.340Z,4.09
2022-11-20T15:07:38.572Z,4.03
2022-11-20T15:10:32.665Z,4.04
2022-11-20T15:13:13.040Z,3.92
2022-11-20T15:15:53.528Z,3.89
2022-11-20T15:18:33.647Z,3.75
2022-11-20T15:21:07.299Z,3.67
2022-11-20T15:23:35.635Z,3.51
2022-11-20T15:26:02.913Z,3.40
2022-11-20T15:28:51.312Z,3.15
2022-11-20T15:31:24.480Z,3.17
2022-11-20T15:33:52.346Z,3.16
2022-11-20T15:36:19.615Z,3.23
2022-11-20T15:38:47.594Z,3.22
2022-11-20T15:41:17.258Z,3.26
2022-11-20T15:43:44.970Z,3.28
2022-11-20T15:46:22.668Z,3.22
2022-11-20T15:48:56.308Z,3.12
2022-11-20T15:51:38.050Z,3.12
2022-11-20T15:54:22.490Z,2.92
2022-11-20T15:56:53.483Z,2.93
2022-11-20T15:59:21.577Z,2.86
2022-11-20T16:01:48.871Z,2.86
2022-11-20T16:04:19.370Z,2.95
2022-11-20T16:06:46.719Z,2.99
2022-11-20T16:09:14.312Z,2.94
2022-11-20T16:11:41.606Z,2.96
2022-11-20T16:14:30.426Z,2.88
2022-11-20T16:16:57.617Z,2.72
2022-11-20T16:19:25.085Z,2.85
2022-11-20T16:21:52.441Z,2.74
2022-11-20T16:24:20.557Z,2.74
2022-11-20T16:26:48.035Z,2.72
2022-11-20T16:29:16.033Z,2.69
2022-11-20T16:31:43.254Z,2.48
2022-11-20T16:34:12.509Z,2.48
2022-11-20T16:36:45.889Z,2.42
2022-11-20T16:39:19.036Z,2.50
2022-11-20T16:41:49.373Z,2.54
2022-11-20T16:44:17.076Z,2.61
2022-11-20T16:46:46.246Z,2.62
2022-11-20T16:49:15.333Z,2.57
2022-11-20T16:51:43.252Z,2.43
2022-11-20T16:54:13.950Z,2.49
2022-11-20T16:56:43.884Z,2.45
2022-11-20T16:59:11.696Z,2.45
2022-11-20T17:01:40.561Z,2.24
2022-11-20T17:04:08.329Z,2.27
2022-11-20T17:06:40.452Z,2.21
2022-11-20T17:09:11.183Z,2.05
2022-11-20T17:11:38.798Z,2.05
2022-11-20T17:14:09.907Z,2.04
2022-11-20T17:16:38.396Z,1.98
2022-11-20T17:19:06.467Z,2.06
2022-11-20T17:21:39.419Z,1.99
2022-11-20T17:24:13.255Z,1.83
2022-11-20T17:26:43.294Z,1.78
2022-11-20T17:29:17.499Z,2.01
2022-11-20T17:31:45.539Z,1.82
2022-11-20T17:34:15.808Z,1.81
2022-11-20T17:36:47.159Z,1.74
2022-11-20T17:39:17.080Z,1.70
2022-11-20T17:41:45.129Z,1.75
2022-11-20T17:44:13.549Z,1.70
2022-11-20T17:46:41.253Z,1.48
2022-11-20T17:49:08.893Z,1.43
2022-11-20T17:51:36.246Z,1.47
2022-11-20T17:54:09.511Z,1.46
2022-11-20T17:56:55.624Z,1.43
2022-11-20T17:59:23.420Z,1.42
2022-11-20T18:01:50.795Z,1.34
2022-11-20T18:04:18.608Z,1.34
2022-11-20T18:06:46.335Z,1.36
2022-11-20T18:09:13.958Z,1.36
2022-11-20T18:11:43.060Z,1.23
2022-11-20T18:14:28.950Z,1.40
2022-11-20T18:17:09.548Z,1.30
2022-11-20T18:19:51.612Z,1.26
2022-11-20T18:22:23.513Z,1.21
2022-11-20T18:24:50.983Z,1.21
2022-11-20T18:27:21.930Z,1.09
2022-11-20T18:29:52.101Z,1.13
2022-11-20T18:32:21.978Z,1.07
2022-11-20T18:34:51.482Z,1.05
2022-11-20T18:37:19.691Z,1.06
2022-11-20T18:39:47.390Z,1.09
2022-11-20T18:42:35.570Z,1.29
2022-11-20T18:45:05.148Z,1.12
2022-11-20T18:47:37.630Z,1.10
2022-11-20T18:50:08.668Z,1.09
2022-11-20T18:52:44.641Z,1.24
2022-11-20T18:55:12.968Z,1.19
2022-11-20T18:57:40.351Z,1.19
2022-11-20T19:00:09.916Z,1.26
2022-11-20T19:02:42.222Z,1.26
2022-11-20T19:05:15.227Z,1.25
2022-11-20T19:07:43.383Z,1.33
2022-11-20T19:10:11.276Z,1.33
2022-11-20T19:12:38.944Z,1.60
2022-11-20T19:15:07.221Z,1.49
2022-11-20T19:17:34.748Z,1.41
2022-11-20T19:20:02.323Z,1.54
2022-11-20T19:22:29.767Z,1.53
2022-11-20T19:24:57.341Z,1.76
2022-11-20T19:27:24.567Z,1.60
2022-11-20T19:29:52.259Z,1.65
2022-11-20T19:32:19.806Z,1.73
2022-11-20T19:34:47.445Z,1.75
2022-11-20T19:37:14.896Z,1.73
2022-11-20T19:39:42.483Z,1.77
2022-11-20T19:42:09.763Z,1.91
2022-11-20T19:44:37.389Z,1.88
2022-11-20T19:47:08.909Z,1.96
2022-11-20T19:49:41.877Z,2.11
2022-11-20T19:52:09.493Z,2.06
2022-11-20T19:54:37.184Z,2.14
2022-11-20T19:57:04.400Z,2.12
2022-11-20T19:59:32.071Z,2.14
2022-11-20T20:01:59.537Z,2.14
2022-11-20T20:04:27.611Z,2.14
2022-11-20T20:06:55.099Z,2.18
2022-11-20T20:09:24.015Z,2.16
2022-11-20T20:11:51.411Z,2.23
2022-11-20T20:14:19.318Z,2.08
2022-11-20T20:16:46.750Z,2.10
2022-11-20T20:19:16.555Z,2.08
2022-11-20T20:21:44.490Z,2.01
2022-11-20T20:24:12.610Z,1.98
2022-11-20T20:26:40.202Z,2.01
2022-11-20T20:29:08.227Z,1.89
2022-11-20T20:31:36.208Z,2.02
2022-11-20T20:34:05.529Z,1.99
2022-11-20T20:36:33.330Z,2.13
2022-11-20T20:39:02.833Z,2.20
2022-11-20T20:41:30.657Z,2.22
2022-11-20T20:44:16.731Z,2.34
2022-11-20T20:46:43.977Z,2.49
2022-11-20T20:49:11.559Z,2.45
2022-11-20T20:51:38.798Z,2.54
2022-11-20T20:54:06.550Z,2.61
2022-11-20T20:56:33.958Z,2.71
2022-11-20T20:59:01.709Z,2.76
2022-11-20T21:01:29.724Z,2.83
2022-11-20T21:03:57.811Z,2.91
2022-11-20T21:06:25.796Z,3.02
2022-11-20T21:08:53.735Z,3.12
2022-11-20T21:11:21.661Z,3.21
2022-11-20T21:13:49.886Z,3.29
2022-11-20T21:16:20.622Z,3.33
2022-11-20T21:18:48.839Z,3.35
2022-11-20T21:21:36.395Z,3.42
2022-11-20T21:24:04.468Z,3.48
2022-11-20T21:26:31.821Z,3.53
2022-11-20T21:28:59.530Z,3.55
2022-11-20T21:31:28.798Z,3.60
2022-11-20T21:33:57.426Z,3.58
2022-11-20T21:36:28.841Z,3.60
2022-11-20T21:38:59.519Z,3.58
2022-11-20T21:41:30.284Z,3.60
2022-11-20T21:46:47.826Z,3.52
2022-11-20T21:49:16.968Z,3.44
2022-11-20T21:51:44.234Z,3.47
2022-11-20T21:54:11.864Z,3.56
2022-11-20T21:56:39.368Z,3.45
2022-11-20T21:59:06.856Z,3.44
2022-11-20T22:01:34.889Z,3.41
2022-11-20T22:04:03.246Z,3.46
2022-11-20T22:06:33.662Z,3.48
2022-11-20T22:09:02.833Z,3.38
2022-11-20T22:11:30.500Z,3.42
2022-11-20T22:14:16.966Z,3.45
2022-11-20T22:16:44.180Z,3.41
2022-11-20T22:19:12.139Z,3.31
2022-11-20T22:21:40.693Z,3.35
2022-11-20T22:24:12.610Z,3.24
2022-11-20T22:26:40.825Z,3.34
2022-11-20T22:29:14.844Z,3.12
2022-11-20T22:31:42.503Z,3.16
2022-11-20T22:34:13.107Z,3.08
2022-11-20T22:36:41.271Z,3.12
2022-11-20T22:39:09.201Z,3.10
2022-11-20T22:41:36.403Z,3.16
2022-11-20T22:44:08.801Z,3.05
2022-11-20T22:46:38.491Z,3.19
2022-11-20T22:49:11.025Z,3.22
2022-11-20T22:51:41.362Z,3.18
2022-11-20T22:54:12.348Z,3.05
2022-11-20T22:56:40.658Z,3.04
2022-11-20T22:59:08.249Z,2.97
2022-11-20T23:01:37.324Z,3.02
2022-11-20T23:04:10.234Z,3.10
2022-11-20T23:06:37.628Z,3.20
2022-11-20T23:09:06.657Z,3.11
2022-11-20T23:11:35.339Z,3.08
2022-11-20T23:14:12.775Z,3.15
2022-11-20T23:16:40.459Z,2.98
2022-11-20T23:19:11.760Z,3.04
2022-11-20T23:21:41.539Z,3.04
2022-11-20T23:24:10.161Z,3.05
2022-11-20T23:26:40.668Z,2.95
2022-11-20T23:29:08.849Z,3.03
2022-11-20T23:31:36.657Z,2.94
2022-11-20T23:34:04.863Z,2.76
2022-11-20T23:36:32.454Z,2.82
2022-11-20T23:38:59.948Z,2.90
2022-11-20T23:41:27.280Z,2.92
2022-11-20T23:43:55.151Z,2.83
2022-11-20T23:46:22.699Z,2.81
2022-11-20T23:48:50.135Z,2.82
2022-11-20T23:51:18.107Z,2.87
2022-11-20T23:53:45.822Z,2.86
2022-11-20T23:56:16.187Z,2.90
2022-11-20T23:58:43.966Z,2.91
